sensor_id;sensor_type;location;lat;lon;timestamp;temperature;humidity
44695;DHT22;32845;59.422;17.930;2023-08-12T00:01:14;12.20;99.90
44695;DHT22;32845;59.422;17.930;2023-08-12T00:05:45;12.20;99.90
44695;DHT22;32845;59.422;17.930;2023-08-12T00:10:16;12.10;99.90
44695;DHT22;32845;59.422;17.930;2023-08-12T00:14:46;12.20;99.90
44695;DHT22;32845;59.422;17.930;2023-08-12T00:19:17;12.20;99.90
44695;DHT22;32845;59.422;17.930;2023-08-12T00:23:48;12.10;99.90
44695;DHT22;32845;59.422;17.930;2023-08-12T00:28:20;12.10;99.90
44695;DHT22;32845;59.422;17.930;2023-08-12T00:32:50;12.10;99.90
44695;DHT22;32845;59.422;17.930;2023-08-12T00:37:21;12.10;99.90
44695;DHT22;32845;59.422;17.930;2023-08-12T00:41:52;12.00;99.90
44695;DHT22;32845;59.422;17.930;2023-08-12T00:46:23;12.00;99.90
44695;DHT22;32845;59.422;17.930;2023-08-12T00:50:54;12.00;99.90
44695;DHT22;32845;59.422;17.930;2023-08-12T00:55:25;12.00;99.90
44695;DHT22;32845;59.422;17.930;2023-08-12T00:59:56;12.00;99.90
44695;DHT22;32845;59.422;17.930;2023-08-12T01:04:27;12.00;99.90
44695;DHT22;32845;59.422;17.930;2023-08-12T01:08:58;12.00;99.90
44695;DHT22;32845;59.422;17.930;2023-08-12T01:13:36;12.00;99.90
44695;DHT22;32845;59.422;17.930;2023-08-12T01:18:08;11.90;99.90
44695;DHT22;32845;59.422;17.930;2023-08-12T01:22:41;11.90;99.90
44695;DHT22;32845;59.422;17.930;2023-08-12T01:27:14;11.90;99.90
44695;DHT22;32845;59.422;17.930;2023-08-12T01:37:11;11.80;99.90
44695;DHT22;32845;59.422;17.930;2023-08-12T01:41:42;11.80;99.90
44695;DHT22;32845;59.422;17.930;2023-08-12T01:46:12;11.70;99.90
44695;DHT22;32845;59.422;17.930;2023-08-12T01:50:43;11.70;99.90
44695;DHT22;32845;59.422;17.930;2023-08-12T01:55:18;11.60;99.90
44695;DHT22;32845;59.422;17.930;2023-08-12T01:59:49;11.60;99.90
44695;DHT22;32845;59.422;17.930;2023-08-12T02:04:20;11.70;99.90
44695;DHT22;32845;59.422;17.930;2023-08-12T02:08:50;11.70;99.90
44695;DHT22;32845;59.422;17.930;2023-08-12T02:13:21;11.60;99.90
44695;DHT22;32845;59.422;17.930;2023-08-12T02:17:51;11.50;99.90
44695;DHT22;32845;59.422;17.930;2023-08-12T02:22:22;11.50;99.90
44695;DHT22;32845;59.422;17.930;2023-08-12T02:26:53;11.40;99.90
44695;DHT22;32845;59.422;17.930;2023-08-12T02:31:24;11.30;99.90
44695;DHT22;32845;59.422;17.930;2023-08-12T02:35:55;11.30;99.90
44695;DHT22;32845;59.422;17.930;2023-08-12T02:40:25;11.20;99.90
44695;DHT22;32845;59.422;17.930;2023-08-12T02:44:56;11.20;99.90
44695;DHT22;32845;59.422;17.930;2023-08-12T02:49:27;11.20;99.90
44695;DHT22;32845;59.422;17.930;2023-08-12T02:53:58;11.10;99.90
44695;DHT22;32845;59.422;17.930;2023-08-12T02:58:28;11.10;99.90
44695;DHT22;32845;59.422;17.930;2023-08-12T03:02:59;11.10;99.90
44695;DHT22;32845;59.422;17.930;2023-08-12T03:07:29;11.10;99.90
44695;DHT22;32845;59.422;17.930;2023-08-12T03:12:00;11.10;99.90
44695;DHT22;32845;59.422;17.930;2023-08-12T03:16:33;11.00;99.90
44695;DHT22;32845;59.422;17.930;2023-08-12T03:21:07;11.00;99.90
44695;DHT22;32845;59.422;17.930;2023-08-12T03:25:38;11.00;99.90
44695;DHT22;32845;59.422;17.930;2023-08-12T03:30:09;11.00;99.90
44695;DHT22;32845;59.422;17.930;2023-08-12T03:34:40;11.10;99.90
44695;DHT22;32845;59.422;17.930;2023-08-12T03:39:10;11.10;99.90
44695;DHT22;32845;59.422;17.930;2023-08-12T03:43:41;11.10;99.90
44695;DHT22;32845;59.422;17.930;2023-08-12T03:48:12;11.10;99.90
44695;DHT22;32845;59.422;17.930;2023-08-12T03:52:42;11.10;99.90
44695;DHT22;32845;59.422;17.930;2023-08-12T03:57:13;11.20;99.90
44695;DHT22;32845;59.422;17.930;2023-08-12T04:01:44;11.30;99.90
44695;DHT22;32845;59.422;17.930;2023-08-12T04:06:14;11.40;99.90
44695;DHT22;32845;59.422;17.930;2023-08-12T04:10:46;11.50;99.90
44695;DHT22;32845;59.422;17.930;2023-08-12T04:15:17;11.60;99.90
44695;DHT22;32845;59.422;17.930;2023-08-12T04:19:48;11.60;99.90
44695;DHT22;32845;59.422;17.930;2023-08-12T04:24:19;11.80;99.90
44695;DHT22;32845;59.422;17.930;2023-08-12T04:28:50;11.90;99.90
44695;DHT22;32845;59.422;17.930;2023-08-12T04:33:23;12.10;99.90
44695;DHT22;32845;59.422;17.930;2023-08-12T04:37:53;12.20;99.90
44695;DHT22;32845;59.422;17.930;2023-08-12T04:42:24;12.40;99.90
44695;DHT22;32845;59.422;17.930;2023-08-12T04:46:54;12.70;99.90
44695;DHT22;32845;59.422;17.930;2023-08-12T04:51:25;12.80;99.90
44695;DHT22;32845;59.422;17.930;2023-08-12T04:55:56;13.10;99.90
44695;DHT22;32845;59.422;17.930;2023-08-12T05:00:27;13.20;99.90
44695;DHT22;32845;59.422;17.930;2023-08-12T05:04:58;13.30;99.90
44695;DHT22;32845;59.422;17.930;2023-08-12T05:09:29;13.50;99.90
44695;DHT22;32845;59.422;17.930;2023-08-12T05:13:59;13.60;99.90
44695;DHT22;32845;59.422;17.930;2023-08-12T05:18:30;13.70;99.90
44695;DHT22;32845;59.422;17.930;2023-08-12T05:23:01;13.80;99.90
44695;DHT22;32845;59.422;17.930;2023-08-12T05:27:31;13.90;99.90
44695;DHT22;32845;59.422;17.930;2023-08-12T05:32:02;14.00;99.90
44695;DHT22;32845;59.422;17.930;2023-08-12T05:36:32;14.00;99.90
44695;DHT22;32845;59.422;17.930;2023-08-12T05:41:03;14.10;99.90
44695;DHT22;32845;59.422;17.930;2023-08-12T05:45:37;14.20;99.90
44695;DHT22;32845;59.422;17.930;2023-08-12T05:50:08;14.30;99.90
44695;DHT22;32845;59.422;17.930;2023-08-12T05:54:39;14.40;99.90
44695;DHT22;32845;59.422;17.930;2023-08-12T05:59:09;14.40;99.90
44695;DHT22;32845;59.422;17.930;2023-08-12T06:03:40;14.60;99.90
44695;DHT22;32845;59.422;17.930;2023-08-12T06:08:10;14.70;99.90
44695;DHT22;32845;59.422;17.930;2023-08-12T06:12:41;14.80;99.90
44695;DHT22;32845;59.422;17.930;2023-08-12T06:17:12;15.00;99.90
44695;DHT22;32845;59.422;17.930;2023-08-12T06:21:42;15.20;99.90
44695;DHT22;32845;59.422;17.930;2023-08-12T06:26:13;15.40;99.90
44695;DHT22;32845;59.422;17.930;2023-08-12T06:30:47;15.50;99.90
44695;DHT22;32845;59.422;17.930;2023-08-12T06:35:18;15.50;99.90
44695;DHT22;32845;59.422;17.930;2023-08-12T06:39:49;15.60;99.90
44695;DHT22;32845;59.422;17.930;2023-08-12T06:44:19;15.60;99.90
44695;DHT22;32845;59.422;17.930;2023-08-12T06:48:50;15.60;99.90
44695;DHT22;32845;59.422;17.930;2023-08-12T06:53:20;15.60;99.90
44695;DHT22;32845;59.422;17.930;2023-08-12T06:57:51;15.70;99.90
44695;DHT22;32845;59.422;17.930;2023-08-12T07:02:22;15.80;99.90
44695;DHT22;32845;59.422;17.930;2023-08-12T07:06:53;15.90;99.90
44695;DHT22;32845;59.422;17.930;2023-08-12T07:11:24;15.90;99.90
44695;DHT22;32845;59.422;17.930;2023-08-12T07:15:54;16.00;99.90
44695;DHT22;32845;59.422;17.930;2023-08-12T07:20:25;16.00;99.90
44695;DHT22;32845;59.422;17.930;2023-08-12T07:24:56;16.10;99.90
44695;DHT22;32845;59.422;17.930;2023-08-12T07:29:26;16.20;99.90
44695;DHT22;32845;59.422;17.930;2023-08-12T07:33:57;16.30;99.90
44695;DHT22;32845;59.422;17.930;2023-08-12T07:38:28;16.30;99.90
44695;DHT22;32845;59.422;17.930;2023-08-12T07:42:58;16.30;99.90
44695;DHT22;32845;59.422;17.930;2023-08-12T07:47:29;16.40;99.90
44695;DHT22;32845;59.422;17.930;2023-08-12T07:51:59;16.50;99.90
44695;DHT22;32845;59.422;17.930;2023-08-12T07:56:30;16.60;99.90
44695;DHT22;32845;59.422;17.930;2023-08-12T08:01:01;16.70;99.90
44695;DHT22;32845;59.422;17.930;2023-08-12T08:05:31;16.80;99.90
44695;DHT22;32845;59.422;17.930;2023-08-12T08:10:02;17.00;99.90
44695;DHT22;32845;59.422;17.930;2023-08-12T08:14:33;17.10;99.90
44695;DHT22;32845;59.422;17.930;2023-08-12T08:19:04;17.20;99.90
44695;DHT22;32845;59.422;17.930;2023-08-12T08:23:34;17.20;99.90
44695;DHT22;32845;59.422;17.930;2023-08-12T08:28:05;17.30;99.90
44695;DHT22;32845;59.422;17.930;2023-08-12T08:32:36;17.30;99.90
44695;DHT22;32845;59.422;17.930;2023-08-12T08:37:06;17.30;99.90
44695;DHT22;32845;59.422;17.930;2023-08-12T08:41:39;17.30;99.90
44695;DHT22;32845;59.422;17.930;2023-08-12T08:46:10;17.30;99.90
44695;DHT22;32845;59.422;17.930;2023-08-12T08:50:44;17.40;99.90
44695;DHT22;32845;59.422;17.930;2023-08-12T08:55:16;17.40;99.90
44695;DHT22;32845;59.422;17.930;2023-08-12T08:59:48;17.60;99.90
44695;DHT22;32845;59.422;17.930;2023-08-12T09:04:21;17.70;99.90
44695;DHT22;32845;59.422;17.930;2023-08-12T09:08:52;17.80;99.90
44695;DHT22;32845;59.422;17.930;2023-08-12T09:13:23;18.00;99.90
44695;DHT22;32845;59.422;17.930;2023-08-12T09:17:54;18.20;99.90
44695;DHT22;32845;59.422;17.930;2023-08-12T09:22:25;18.30;99.90
44695;DHT22;32845;59.422;17.930;2023-08-12T09:26:56;18.40;99.90
44695;DHT22;32845;59.422;17.930;2023-08-12T09:31:28;18.40;99.90
44695;DHT22;32845;59.422;17.930;2023-08-12T09:35:59;18.40;99.90
44695;DHT22;32845;59.422;17.930;2023-08-12T09:40:31;18.30;99.90
44695;DHT22;32845;59.422;17.930;2023-08-12T09:45:02;18.30;99.90
44695;DHT22;32845;59.422;17.930;2023-08-12T09:49:33;18.40;99.90
44695;DHT22;32845;59.422;17.930;2023-08-12T09:54:04;18.40;99.90
44695;DHT22;32845;59.422;17.930;2023-08-12T09:58:35;18.50;99.90
44695;DHT22;32845;59.422;17.930;2023-08-12T10:03:07;18.50;99.90
44695;DHT22;32845;59.422;17.930;2023-08-12T10:07:39;18.50;99.90
44695;DHT22;32845;59.422;17.930;2023-08-12T10:12:11;18.50;99.90
44695;DHT22;32845;59.422;17.930;2023-08-12T10:16:46;18.60;99.90
44695;DHT22;32845;59.422;17.930;2023-08-12T10:21:17;18.70;99.90
44695;DHT22;32845;59.422;17.930;2023-08-12T10:25:49;18.90;99.90
44695;DHT22;32845;59.422;17.930;2023-08-12T10:30:23;19.00;99.90
44695;DHT22;32845;59.422;17.930;2023-08-12T10:34:55;19.20;99.90
44695;DHT22;32845;59.422;17.930;2023-08-12T10:39:27;19.30;99.90
44695;DHT22;32845;59.422;17.930;2023-08-12T10:44:00;19.40;99.90
44695;DHT22;32845;59.422;17.930;2023-08-12T10:48:31;19.50;99.90
44695;DHT22;32845;59.422;17.930;2023-08-12T10:53:33;19.60;99.90
44695;DHT22;32845;59.422;17.930;2023-08-12T10:58:08;19.70;99.90
44695;DHT22;32845;59.422;17.930;2023-08-12T11:02:39;19.70;99.90
44695;DHT22;32845;59.422;17.930;2023-08-12T11:07:32;19.80;99.90
44695;DHT22;32845;59.422;17.930;2023-08-12T11:12:05;19.80;99.90
44695;DHT22;32845;59.422;17.930;2023-08-12T11:16:37;19.80;99.90
44695;DHT22;32845;59.422;17.930;2023-08-12T11:21:07;19.80;99.90
44695;DHT22;32845;59.422;17.930;2023-08-12T11:25:39;20.00;99.90
44695;DHT22;32845;59.422;17.930;2023-08-12T11:30:12;20.10;99.90
44695;DHT22;32845;59.422;17.930;2023-08-12T11:34:43;20.10;99.90
44695;DHT22;32845;59.422;17.930;2023-08-12T11:39:14;20.10;99.90
44695;DHT22;32845;59.422;17.930;2023-08-12T11:43:45;20.10;99.90
44695;DHT22;32845;59.422;17.930;2023-08-12T11:48:16;20.00;99.90
44695;DHT22;32845;59.422;17.930;2023-08-12T11:52:47;19.90;99.90
44695;DHT22;32845;59.422;17.930;2023-08-12T11:57:19;19.90;99.90
44695;DHT22;32845;59.422;17.930;2023-08-12T12:01:49;19.80;99.90
44695;DHT22;32845;59.422;17.930;2023-08-12T12:06:36;19.70;99.90
44695;DHT22;32845;59.422;17.930;2023-08-12T12:11:07;19.70;99.90
44695;DHT22;32845;59.422;17.930;2023-08-12T12:15:43;19.70;99.90
44695;DHT22;32845;59.422;17.930;2023-08-12T12:20:14;19.60;99.90
44695;DHT22;32845;59.422;17.930;2023-08-12T12:24:45;19.50;99.90
44695;DHT22;32845;59.422;17.930;2023-08-12T12:29:16;19.50;99.90
44695;DHT22;32845;59.422;17.930;2023-08-12T12:33:47;19.50;99.90
44695;DHT22;32845;59.422;17.930;2023-08-12T12:38:17;19.40;99.90
44695;DHT22;32845;59.422;17.930;2023-08-12T12:42:48;19.40;99.90
44695;DHT22;32845;59.422;17.930;2023-08-12T12:47:19;19.40;99.90
44695;DHT22;32845;59.422;17.930;2023-08-12T12:51:49;19.50;99.90
44695;DHT22;32845;59.422;17.930;2023-08-12T12:56:20;19.50;99.90
44695;DHT22;32845;59.422;17.930;2023-08-12T13:00:51;19.50;99.90
44695;DHT22;32845;59.422;17.930;2023-08-12T13:05:21;19.50;99.90
44695;DHT22;32845;59.422;17.930;2023-08-12T13:09:52;19.60;99.90
44695;DHT22;32845;59.422;17.930;2023-08-12T13:14:22;19.50;99.90
44695;DHT22;32845;59.422;17.930;2023-08-12T13:18:54;19.50;99.90
44695;DHT22;32845;59.422;17.930;2023-08-12T13:23:24;19.50;99.90
44695;DHT22;32845;59.422;17.930;2023-08-12T13:27:55;19.40;99.90
44695;DHT22;32845;59.422;17.930;2023-08-12T13:32:26;19.40;99.90
44695;DHT22;32845;59.422;17.930;2023-08-12T13:36:56;19.40;99.90
44695;DHT22;32845;59.422;17.930;2023-08-12T13:41:27;19.40;99.90
44695;DHT22;32845;59.422;17.930;2023-08-12T13:45:57;19.40;99.90
44695;DHT22;32845;59.422;17.930;2023-08-12T13:50:28;19.40;99.90
44695;DHT22;32845;59.422;17.930;2023-08-12T13:54:59;19.40;99.90
44695;DHT22;32845;59.422;17.930;2023-08-12T13:59:30;19.50;99.90
44695;DHT22;32845;59.422;17.930;2023-08-12T14:04:00;19.50;99.90
44695;DHT22;32845;59.422;17.930;2023-08-12T14:08:31;19.40;99.90
44695;DHT22;32845;59.422;17.930;2023-08-12T14:13:02;19.40;99.90
44695;DHT22;32845;59.422;17.930;2023-08-12T14:17:32;19.40;99.90
44695;DHT22;32845;59.422;17.930;2023-08-12T14:22:04;19.40;99.90
44695;DHT22;32845;59.422;17.930;2023-08-12T14:26:35;19.50;99.90
44695;DHT22;32845;59.422;17.930;2023-08-12T14:31:07;19.50;99.90
44695;DHT22;32845;59.422;17.930;2023-08-12T14:35:38;19.60;99.90
44695;DHT22;32845;59.422;17.930;2023-08-12T14:40:09;19.60;99.90
44695;DHT22;32845;59.422;17.930;2023-08-12T14:44:40;19.60;99.90
44695;DHT22;32845;59.422;17.930;2023-08-12T14:49:11;19.70;99.90
44695;DHT22;32845;59.422;17.930;2023-08-12T14:53:52;19.70;99.90
44695;DHT22;32845;59.422;17.930;2023-08-12T14:58:24;19.70;99.90
44695;DHT22;32845;59.422;17.930;2023-08-12T15:03:10;19.80;99.90
44695;DHT22;32845;59.422;17.930;2023-08-12T15:07:42;19.70;99.90
44695;DHT22;32845;59.422;17.930;2023-08-12T15:12:18;19.70;99.90
44695;DHT22;32845;59.422;17.930;2023-08-12T15:16:49;19.70;99.90
44695;DHT22;32845;59.422;17.930;2023-08-12T15:21:20;19.70;99.90
44695;DHT22;32845;59.422;17.930;2023-08-12T15:25:50;19.70;99.90
44695;DHT22;32845;59.422;17.930;2023-08-12T15:30:21;19.70;99.90
44695;DHT22;32845;59.422;17.930;2023-08-12T15:34:57;19.70;99.90
44695;DHT22;32845;59.422;17.930;2023-08-12T15:39:28;19.70;99.90
44695;DHT22;32845;59.422;17.930;2023-08-12T15:43:58;19.60;99.90
44695;DHT22;32845;59.422;17.930;2023-08-12T15:48:29;19.60;99.90
44695;DHT22;32845;59.422;17.930;2023-08-12T15:53:00;19.50;99.90
44695;DHT22;32845;59.422;17.930;2023-08-12T15:57:32;19.50;99.90
44695;DHT22;32845;59.422;17.930;2023-08-12T16:02:04;19.50;99.90
44695;DHT22;32845;59.422;17.930;2023-08-12T16:06:34;19.50;99.90
44695;DHT22;32845;59.422;17.930;2023-08-12T16:11:05;19.50;99.90
44695;DHT22;32845;59.422;17.930;2023-08-12T16:15:35;19.40;99.90
44695;DHT22;32845;59.422;17.930;2023-08-12T16:20:07;19.30;99.90
44695;DHT22;32845;59.422;17.930;2023-08-12T16:24:38;19.30;99.90
44695;DHT22;32845;59.422;17.930;2023-08-12T16:29:09;19.20;99.90
44695;DHT22;32845;59.422;17.930;2023-08-12T16:33:39;19.20;99.90
44695;DHT22;32845;59.422;17.930;2023-08-12T16:38:10;19.20;99.90
44695;DHT22;32845;59.422;17.930;2023-08-12T16:42:41;19.20;99.90
44695;DHT22;32845;59.422;17.930;2023-08-12T16:47:11;19.10;99.90
44695;DHT22;32845;59.422;17.930;2023-08-12T16:51:42;19.10;99.90
44695;DHT22;32845;59.422;17.930;2023-08-12T16:56:13;19.00;99.90
44695;DHT22;32845;59.422;17.930;2023-08-12T17:00:43;19.00;99.90
44695;DHT22;32845;59.422;17.930;2023-08-12T17:05:15;19.10;99.90
44695;DHT22;32845;59.422;17.930;2023-08-12T17:09:46;19.00;99.90
44695;DHT22;32845;59.422;17.930;2023-08-12T17:14:17;19.00;99.90
44695;DHT22;32845;59.422;17.930;2023-08-12T17:18:47;19.00;99.90
44695;DHT22;32845;59.422;17.930;2023-08-12T17:23:18;19.00;99.90
44695;DHT22;32845;59.422;17.930;2023-08-12T17:27:50;19.10;99.90
44695;DHT22;32845;59.422;17.930;2023-08-12T17:32:20;19.00;99.90
44695;DHT22;32845;59.422;17.930;2023-08-12T17:36:51;19.00;99.90
44695;DHT22;32845;59.422;17.930;2023-08-12T17:41:22;19.00;99.90
44695;DHT22;32845;59.422;17.930;2023-08-12T17:45:52;18.90;99.90
44695;DHT22;32845;59.422;17.930;2023-08-12T17:50:24;18.90;99.90
44695;DHT22;32845;59.422;17.930;2023-08-12T17:54:54;18.90;99.90
44695;DHT22;32845;59.422;17.930;2023-08-12T17:59:25;18.80;99.90
44695;DHT22;32845;59.422;17.930;2023-08-12T18:03:56;18.70;99.90
44695;DHT22;32845;59.422;17.930;2023-08-12T18:08:26;18.70;99.90
44695;DHT22;32845;59.422;17.930;2023-08-12T18:12:58;18.60;99.90
44695;DHT22;32845;59.422;17.930;2023-08-12T18:17:29;18.60;99.90
44695;DHT22;32845;59.422;17.930;2023-08-12T18:22:02;18.50;99.90
44695;DHT22;32845;59.422;17.930;2023-08-12T18:26:33;18.50;99.90
44695;DHT22;32845;59.422;17.930;2023-08-12T18:31:04;18.40;99.90
44695;DHT22;32845;59.422;17.930;2023-08-12T18:35:34;18.40;99.90
44695;DHT22;32845;59.422;17.930;2023-08-12T18:40:05;18.40;99.90
44695;DHT22;32845;59.422;17.930;2023-08-12T18:44:38;18.30;99.90
44695;DHT22;32845;59.422;17.930;2023-08-12T18:49:08;18.30;99.90
44695;DHT22;32845;59.422;17.930;2023-08-12T18:53:39;18.20;99.90
44695;DHT22;32845;59.422;17.930;2023-08-12T18:58:09;18.20;99.90
44695;DHT22;32845;59.422;17.930;2023-08-12T19:02:41;18.20;99.90
44695;DHT22;32845;59.422;17.930;2023-08-12T19:07:11;18.20;99.90
44695;DHT22;32845;59.422;17.930;2023-08-12T19:11:43;18.10;99.90
44695;DHT22;32845;59.422;17.930;2023-08-12T19:16:14;18.10;99.90
44695;DHT22;32845;59.422;17.930;2023-08-12T19:20:44;18.10;99.90
44695;DHT22;32845;59.422;17.930;2023-08-12T19:25:15;18.00;99.90
44695;DHT22;32845;59.422;17.930;2023-08-12T19:29:45;18.00;99.90
44695;DHT22;32845;59.422;17.930;2023-08-12T19:34:16;17.90;99.90
44695;DHT22;32845;59.422;17.930;2023-08-12T19:38:48;17.80;99.90
44695;DHT22;32845;59.422;17.930;2023-08-12T19:43:19;17.80;99.90
44695;DHT22;32845;59.422;17.930;2023-08-12T19:47:49;17.70;99.90
44695;DHT22;32845;59.422;17.930;2023-08-12T19:52:23;17.60;99.90
44695;DHT22;32845;59.422;17.930;2023-08-12T19:56:54;17.50;99.90
44695;DHT22;32845;59.422;17.930;2023-08-12T20:01:24;17.40;99.90
44695;DHT22;32845;59.422;17.930;2023-08-12T20:05:55;17.30;99.90
44695;DHT22;32845;59.422;17.930;2023-08-12T20:10:26;17.20;99.90
44695;DHT22;32845;59.422;17.930;2023-08-12T20:14:57;17.20;99.90
44695;DHT22;32845;59.422;17.930;2023-08-12T20:19:27;17.20;99.90
44695;DHT22;32845;59.422;17.930;2023-08-12T20:23:58;17.10;99.90
44695;DHT22;32845;59.422;17.930;2023-08-12T20:28:28;17.10;99.90
44695;DHT22;32845;59.422;17.930;2023-08-12T20:33:00;17.00;99.90
44695;DHT22;32845;59.422;17.930;2023-08-12T20:37:30;17.00;99.90
44695;DHT22;32845;59.422;17.930;2023-08-12T20:42:01;17.00;99.90
44695;DHT22;32845;59.422;17.930;2023-08-12T20:46:33;17.00;99.90
44695;DHT22;32845;59.422;17.930;2023-08-12T20:51:04;17.00;99.90
44695;DHT22;32845;59.422;17.930;2023-08-12T20:55:35;16.90;99.90
44695;DHT22;32845;59.422;17.930;2023-08-12T21:00:07;16.90;99.90
44695;DHT22;32845;59.422;17.930;2023-08-12T21:04:39;16.90;99.90
44695;DHT22;32845;59.422;17.930;2023-08-12T21:09:09;16.80;99.90
44695;DHT22;32845;59.422;17.930;2023-08-12T21:13:40;16.80;99.90
44695;DHT22;32845;59.422;17.930;2023-08-12T21:18:11;16.70;99.90
44695;DHT22;32845;59.422;17.930;2023-08-12T21:22:42;16.70;99.90
44695;DHT22;32845;59.422;17.930;2023-08-12T21:27:14;16.60;99.90
44695;DHT22;32845;59.422;17.930;2023-08-12T21:31:45;16.60;99.90
44695;DHT22;32845;59.422;17.930;2023-08-12T21:36:16;16.50;99.90
44695;DHT22;32845;59.422;17.930;2023-08-12T21:40:46;16.40;99.90
44695;DHT22;32845;59.422;17.930;2023-08-12T21:45:17;16.30;99.90
44695;DHT22;32845;59.422;17.930;2023-08-12T21:49:48;16.30;99.90
44695;DHT22;32845;59.422;17.930;2023-08-12T21:54:18;16.30;99.90
44695;DHT22;32845;59.422;17.930;2023-08-12T21:58:50;16.20;99.90
44695;DHT22;32845;59.422;17.930;2023-08-12T22:03:21;16.20;99.90
44695;DHT22;32845;59.422;17.930;2023-08-12T22:07:51;16.10;99.90
44695;DHT22;32845;59.422;17.930;2023-08-12T22:12:22;16.10;99.90
44695;DHT22;32845;59.422;17.930;2023-08-12T22:16:52;16.00;99.90
44695;DHT22;32845;59.422;17.930;2023-08-12T22:21:23;15.90;99.90
44695;DHT22;32845;59.422;17.930;2023-08-12T22:25:54;15.90;99.90
44695;DHT22;32845;59.422;17.930;2023-08-12T22:30:24;15.80;99.90
44695;DHT22;32845;59.422;17.930;2023-08-12T22:34:55;15.80;99.90
44695;DHT22;32845;59.422;17.930;2023-08-12T22:39:25;15.80;99.90
44695;DHT22;32845;59.422;17.930;2023-08-12T22:43:56;15.80;99.90
44695;DHT22;32845;59.422;17.930;2023-08-12T22:48:27;15.80;99.90
44695;DHT22;32845;59.422;17.930;2023-08-12T22:52:57;15.70;99.90
44695;DHT22;32845;59.422;17.930;2023-08-12T22:57:28;15.70;99.90
44695;DHT22;32845;59.422;17.930;2023-08-12T23:01:58;15.70;99.90
44695;DHT22;32845;59.422;17.930;2023-08-12T23:06:29;15.60;99.90
44695;DHT22;32845;59.422;17.930;2023-08-12T23:10:59;15.60;99.90
44695;DHT22;32845;59.422;17.930;2023-08-12T23:15:30;15.50;99.90
44695;DHT22;32845;59.422;17.930;2023-08-12T23:20:00;15.40;99.90
44695;DHT22;32845;59.422;17.930;2023-08-12T23:24:31;15.40;99.90
44695;DHT22;32845;59.422;17.930;2023-08-12T23:29:02;15.30;99.90
44695;DHT22;32845;59.422;17.930;2023-08-12T23:33:33;15.30;99.90
44695;DHT22;32845;59.422;17.930;2023-08-12T23:38:04;15.20;99.90
44695;DHT22;32845;59.422;17.930;2023-08-12T23:42:34;15.10;99.90
44695;DHT22;32845;59.422;17.930;2023-08-12T23:47:05;15.10;99.90
44695;DHT22;32845;59.422;17.930;2023-08-12T23:51:38;15.10;99.90
44695;DHT22;32845;59.422;17.930;2023-08-12T23:56:09;15.10;99.90
